createdAt,value
2023-01-09T00:00:35.458Z,101386.66
2023-01-09T00:03:05.643Z,101391.59
2023-01-09T00:05:35.918Z,101393.81
2023-01-09T00:08:08.662Z,101397.63
2023-01-09T00:10:40.305Z,101410.31
2023-01-09T00:13:12.555Z,101406.44
2023-01-09T00:15:43.862Z,101413.06
2023-01-09T00:18:14.016Z,101419.63
2023-01-09T00:20:44.035Z,101420.44
2023-01-09T00:23:13.990Z,101416.88
2023-01-09T00:25:43.885Z,101420.75
2023-01-09T00:28:13.780Z,101430.91
2023-01-09T00:30:44.769Z,101431.75
2023-01-09T00:33:15.482Z,101433.94
2023-01-09T00:35:45.532Z,101430.09
2023-01-09T00:38:15.353Z,101437.25
2023-01-09T00:40:45.296Z,101452.09
2023-01-09T00:43:15.798Z,101454.53
2023-01-09T00:45:46.194Z,101462.53
2023-01-09T00:48:32.663Z,101462.56
2023-01-09T00:51:03.189Z,101463.91
2023-01-09T00:53:35.747Z,101468.59
2023-01-09T00:56:09.891Z,101467.19
2023-01-09T00:58:40.291Z,101467.50
2023-01-09T01:01:10.534Z,101473.53
2023-01-09T01:03:40.769Z,101474.38
2023-01-09T01:06:29.351Z,101479.03
2023-01-09T01:08:59.645Z,101493.31
2023-01-09T01:11:29.707Z,101496.38
2023-01-09T01:14:00.802Z,101495.53
2023-01-09T01:16:30.876Z,101495.53
2023-01-09T01:19:00.735Z,101496.09
2023-01-09T01:21:30.822Z,101500.50
2023-01-09T01:24:00.693Z,101515.91
2023-01-09T01:26:30.740Z,101511.50
2023-01-09T01:29:01.900Z,101517.53
2023-01-09T01:31:31.896Z,101524.97
2023-01-09T01:34:01.758Z,101516.97
2023-01-09T01:36:31.644Z,101525.22
2023-01-09T01:39:01.520Z,101515.06
2023-01-09T01:41:37.072Z,101524.13
2023-01-09T01:44:10.000Z,101525.75
2023-01-09T01:46:40.263Z,101527.41
2023-01-09T01:49:16.586Z,101533.44
2023-01-09T01:51:53.898Z,101531.00
2023-01-09T01:54:28.427Z,101533.75
2023-01-09T01:57:01.012Z,101530.47
2023-01-09T01:59:52.292Z,101537.84
2023-01-09T02:02:26.315Z,101535.09
2023-01-09T02:04:58.594Z,101539.50
2023-01-09T02:07:28.701Z,101546.41
2023-01-09T02:09:59.855Z,101543.34
2023-01-09T02:12:30.777Z,101540.59
2023-01-09T02:15:17.248Z,101545.00
2023-01-09T02:18:11.670Z,101539.19
2023-01-09T02:21:03.783Z,101541.94
2023-01-09T02:23:39.950Z,101541.94
2023-01-09T02:26:18.954Z,101540.03
2023-01-09T02:29:11.903Z,101547.44
2023-01-09T02:32:10.996Z,101534.81
2023-01-09T02:35:09.809Z,101539.47
2023-01-09T02:37:48.912Z,101540.84
2023-01-09T02:40:26.666Z,101540.56
2023-01-09T02:43:00.708Z,101532.03
2023-01-09T02:45:30.870Z,101531.50
2023-01-09T02:48:00.918Z,101543.31
2023-01-09T02:50:47.514Z,101535.88
2023-01-09T02:53:57.422Z,101536.19
2023-01-09T02:56:38.169Z,101530.94
2023-01-09T02:59:26.602Z,101534.25
2023-01-09T03:02:16.851Z,101529.03
2023-01-09T03:05:21.904Z,101526.81
2023-01-09T03:08:02.079Z,101529.56
2023-01-09T03:10:43.943Z,101524.88
2023-01-09T03:13:18.876Z,101523.22
2023-01-09T03:15:52.916Z,101516.34
2023-01-09T03:18:27.385Z,101514.72
2023-01-09T03:20:58.107Z,101516.34
2023-01-09T03:23:28.315Z,101510.56
2023-01-09T03:25:58.366Z,101513.31
2023-01-09T03:28:31.182Z,101508.59
2023-01-09T03:31:01.242Z,101509.44
2023-01-09T03:33:31.217Z,101505.59
2023-01-09T03:36:01.177Z,101508.59
2023-01-09T03:38:31.132Z,101498.72
2023-01-09T03:41:01.126Z,101499.25
2023-01-09T03:43:31.191Z,101503.09
2023-01-09T03:46:01.790Z,101498.44
2023-01-09T03:48:31.937Z,101500.34
2023-01-09T03:51:01.847Z,101489.88
2023-01-09T03:53:31.996Z,101481.94
2023-01-09T03:56:02.273Z,101491.00
2023-01-09T03:58:32.232Z,101482.47
2023-01-09T04:01:07.131Z,101479.72
2023-01-09T04:03:40.281Z,101473.13
2023-01-09T04:06:10.453Z,101461.28
2023-01-09T04:08:40.311Z,101458.25
2023-01-09T04:11:12.370Z,101455.50
2023-01-09T04:13:42.561Z,101449.16
2023-01-09T04:16:12.673Z,101444.50
2023-01-09T04:18:42.559Z,101444.50
2023-01-09T04:21:12.559Z,101437.88
2023-01-09T04:23:42.648Z,101428.47
2023-01-09T04:26:12.537Z,101429.31
2023-01-09T04:28:42.717Z,101415.03
2023-01-09T04:31:12.750Z,101417.78
2023-01-09T04:33:42.843Z,101416.13
2023-01-09T04:36:12.859Z,101414.72
2023-01-09T04:38:42.908Z,101412.81
2023-01-09T04:41:12.897Z,101403.44
2023-01-09T04:43:44.405Z,101400.69
2023-01-09T04:46:14.468Z,101401.50
2023-01-09T04:48:44.401Z,101392.13
2023-01-09T04:51:14.245Z,101389.13
2023-01-09T04:53:44.119Z,101374.53
2023-01-09T04:56:14.154Z,101375.88
2023-01-09T04:58:44.297Z,101361.59
2023-01-09T05:01:14.508Z,101361.28
2023-01-09T05:03:44.467Z,101354.69
2023-01-09T05:06:14.629Z,101354.69
2023-01-09T05:08:44.713Z,101346.97
2023-01-09T05:11:14.600Z,101339.28
2023-01-09T05:13:44.482Z,101336.22
2023-01-09T05:16:14.604Z,101332.09
2023-01-09T05:18:44.984Z,101322.72
2023-01-09T05:21:15.475Z,101317.50
2023-01-09T05:23:45.565Z,101315.59
2023-01-09T05:26:15.763Z,101307.31
2023-01-09T05:28:45.917Z,101299.34
2023-01-09T05:31:15.845Z,101296.00
2023-01-09T05:33:45.989Z,101292.16
2023-01-09T05:36:16.097Z,101288.28
2023-01-09T05:38:46.195Z,101280.03
2023-01-09T05:41:16.082Z,101280.56
2023-01-09T05:43:46.008Z,101273.41
2023-01-09T05:46:15.961Z,101269.84
2023-01-09T05:48:47.142Z,101261.28
2023-01-09T05:51:17.444Z,101253.03
2023-01-09T05:53:47.571Z,101243.66
2023-01-09T05:56:17.645Z,101244.78
2023-01-09T05:58:47.900Z,101242.03
2023-01-09T06:01:18.105Z,101243.09
2023-01-09T06:03:48.208Z,101234.31
2023-01-09T06:06:18.218Z,101227.38
2023-01-09T06:08:48.094Z,101223.81
2023-01-09T06:11:17.974Z,101225.97
2023-01-09T06:13:48.003Z,101213.94
2023-01-09T06:16:17.968Z,101212.81
2023-01-09T06:18:48.523Z,101213.34
2023-01-09T06:21:18.688Z,101204.47
2023-01-09T06:23:49.178Z,101207.22
2023-01-09T06:26:19.691Z,101195.41
2023-01-09T06:28:49.743Z,101196.22
2023-01-09T06:31:19.791Z,101191.53
2023-01-09T06:33:49.892Z,101188.47
2023-01-09T06:36:22.240Z,101183.56
2023-01-09T06:38:52.549Z,101174.50
2023-01-09T06:41:22.487Z,101177.47
2023-01-09T06:43:52.398Z,101164.00
2023-01-09T06:46:22.255Z,101159.84
2023-01-09T06:48:52.143Z,101159.31
2023-01-09T06:51:22.124Z,101155.16
2023-01-09T06:53:54.085Z,101160.66
2023-01-09T06:56:24.313Z,101154.84
2023-01-09T06:58:54.756Z,101152.09
2023-01-09T07:01:24.792Z,101140.78
2023-01-09T07:03:55.116Z,101136.13
2023-01-09T07:06:25.570Z,101136.13
2023-01-09T07:08:55.687Z,101131.72
2023-01-09T07:11:25.913Z,101125.91
2023-01-09T07:13:56.059Z,101123.66
2023-01-09T07:16:25.882Z,101117.97
2023-01-09T07:18:57.002Z,101112.13
2023-01-09T07:21:27.129Z,101110.50
2023-01-09T07:23:57.035Z,101102.25
2023-01-09T07:26:26.879Z,101107.16
2023-01-09T07:28:56.865Z,101100.31
2023-01-09T07:31:26.797Z,101094.50
2023-01-09T07:33:56.766Z,101098.91
2023-01-09T07:36:26.599Z,101102.47
2023-01-09T07:38:56.416Z,101097.50
2023-01-09T07:41:26.421Z,101096.97
2023-01-09T07:43:56.771Z,101096.97
2023-01-09T07:46:27.182Z,101094.47
2023-01-09T07:48:57.263Z,101091.72
2023-01-09T07:51:27.313Z,101090.88
2023-01-09T07:53:57.198Z,101096.09
2023-01-09T07:56:27.124Z,101091.41
2023-01-09T07:58:57.133Z,101092.50
2023-01-09T08:01:27.152Z,101099.66
2023-01-09T08:03:57.132Z,101098.03
2023-01-09T08:06:27.176Z,101096.09
2023-01-09T08:08:57.139Z,101091.41
2023-01-09T08:11:27.591Z,101085.91
2023-01-09T08:13:57.661Z,101084.78
2023-01-09T08:16:27.621Z,101082.03
2023-01-09T08:18:57.516Z,101083.16
2023-01-09T08:21:28.673Z,101073.75
2023-01-09T08:23:58.810Z,101064.69
2023-01-09T08:26:28.787Z,101065.50
2023-01-09T08:28:58.871Z,101066.03
2023-01-09T08:31:28.855Z,101063.28
2023-01-09T08:33:58.927Z,101061.34
2023-01-09T08:36:29.007Z,101056.66
2023-01-09T08:38:59.259Z,101056.34
2023-01-09T08:41:47.637Z,101056.66
2023-01-09T08:44:35.753Z,101057.50
2023-01-09T08:47:08.844Z,101051.16
2023-01-09T08:49:40.952Z,101053.38
2023-01-09T08:52:11.320Z,101058.59
2023-01-09T08:54:42.176Z,101050.34
2023-01-09T08:57:12.240Z,101055.84
2023-01-09T08:59:42.077Z,101059.09
2023-01-09T09:02:13.077Z,101057.16
2023-01-09T09:04:43.120Z,101048.91
2023-01-09T09:07:13.057Z,101059.63
2023-01-09T09:09:43.156Z,101066.75
2023-01-09T09:12:13.104Z,101058.81
2023-01-09T09:15:01.460Z,101053.00
2023-01-09T09:17:31.587Z,101056.06
2023-01-09T09:20:02.686Z,101065.63
2023-01-09T09:22:33.298Z,101057.69
2023-01-09T09:25:03.570Z,101058.50
2023-01-09T09:27:38.847Z,101067.00
2023-01-09T09:30:09.928Z,101067.28
2023-01-09T09:32:40.760Z,101062.88
2023-01-09T09:35:11.881Z,101069.22
2023-01-09T09:37:42.222Z,101057.69
2023-01-09T09:40:39.987Z,101070.84
2023-01-09T09:44:09.490Z,101074.22
2023-01-09T09:46:42.546Z,101075.84
2023-01-09T09:49:28.745Z,101069.00
2023-01-09T09:52:06.858Z,101078.06
2023-01-09T09:54:45.555Z,101084.63
2023-01-09T09:57:20.569Z,101076.66
2023-01-09T09:59:53.557Z,101081.34
2023-01-09T10:02:55.252Z,101079.91
2023-01-09T10:05:43.048Z,101080.75
2023-01-09T10:08:51.865Z,101085.44
2023-01-09T10:11:44.175Z,101084.00
2023-01-09T10:14:23.816Z,101086.25
2023-01-09T10:17:03.082Z,101090.63
2023-01-09T10:19:36.137Z,101089.28
2023-01-09T10:22:39.171Z,101097.28
2023-01-09T10:25:37.560Z,101091.78
2023-01-09T10:28:29.311Z,101101.16
2023-01-09T10:31:07.542Z,101105.53
2023-01-09T10:34:11.416Z,101109.41
2023-01-09T10:36:53.472Z,101122.88
2023-01-09T10:39:34.693Z,101121.22
2023-01-09T10:42:10.153Z,101122.56
2023-01-09T10:44:51.133Z,101119.78
2023-01-09T10:47:37.137Z,101126.13
2023-01-09T10:50:38.300Z,101129.69
2023-01-09T10:53:23.978Z,101128.06
2023-01-09T10:55:58.628Z,101139.06
2023-01-09T10:58:28.757Z,101132.75
2023-01-09T11:01:01.145Z,101148.44
2023-01-09T11:03:32.132Z,101145.41
2023-01-09T11:06:05.655Z,101143.25
2023-01-09T11:08:45.197Z,101156.44
2023-01-09T11:11:32.932Z,101150.09
2023-01-09T11:14:33.898Z,101158.66
2023-01-09T11:17:06.198Z,101157.84
2023-01-09T11:19:36.494Z,101164.97
2023-01-09T11:22:11.372Z,101159.47
2023-01-09T11:24:41.547Z,101163.38
2023-01-09T11:27:17.224Z,101174.06
2023-01-09T11:29:47.451Z,101172.13
2023-01-09T11:32:25.791Z,101178.47
2023-01-09T11:34:55.996Z,101173.75
2023-01-09T11:37:32.376Z,101179.56
2023-01-09T11:40:03.889Z,101187.53
2023-01-09T11:42:51.665Z,101177.63
2023-01-09T11:45:26.976Z,101191.38
2023-01-09T11:47:57.247Z,101190.06
2023-01-09T11:50:32.784Z,101195.56
2023-01-09T11:53:21.232Z,101203.53
2023-01-09T11:56:06.802Z,101207.91
2023-01-09T11:58:37.503Z,101212.31
2023-01-09T12:01:38.269Z,101217.81
2023-01-09T12:04:42.125Z,101219.44
2023-01-09T12:07:26.236Z,101223.03
2023-01-09T12:10:35.317Z,101228.53
2023-01-09T12:13:24.724Z,101230.19
2023-01-09T12:16:06.822Z,101234.06
2023-01-09T12:18:48.664Z,101238.44
2023-01-09T12:21:26.563Z,101237.63
2023-01-09T12:24:18.199Z,101247.81
2023-01-09T12:26:50.826Z,101242.31
2023-01-09T12:29:41.494Z,101254.44
2023-01-09T12:32:11.455Z,101255.78
2023-01-09T12:35:02.673Z,101256.09
2023-01-09T12:37:52.556Z,101266.78
2023-01-09T12:40:47.442Z,101262.13
2023-01-09T12:43:36.072Z,101272.31
2023-01-09T12:46:17.966Z,101274.25
2023-01-09T12:49:29.316Z,101269.53
2023-01-09T12:52:25.685Z,101277.53
2023-01-09T12:55:05.190Z,101277.81
2023-01-09T12:57:45.288Z,101281.69
2023-01-09T13:00:21.369Z,101288.81
2023-01-09T13:03:11.942Z,101284.16
2023-01-09T13:05:49.724Z,101293.53
2023-01-09T13:08:29.075Z,101294.63
2023-01-09T13:11:20.004Z,101303.13
2023-01-09T13:13:57.294Z,101306.19
2023-01-09T13:16:43.800Z,101299.84
2023-01-09T13:19:32.096Z,101310.28
2023-01-09T13:22:02.672Z,101306.09
2023-01-09T13:24:43.205Z,101317.09
2023-01-09T13:27:21.562Z,101317.94
2023-01-09T13:29:58.091Z,101308.31
2023-01-09T13:32:52.579Z,101321.81
2023-01-09T13:35:22.798Z,101319.06
2023-01-09T13:37:55.650Z,101316.81
2023-01-09T13:40:26.656Z,101326.72
2023-01-09T13:43:08.604Z,101323.13
2023-01-09T13:45:40.859Z,101338.88
2023-01-09T13:48:13.367Z,101331.13
2023-01-09T13:50:45.585Z,101327.84
2023-01-09T13:53:31.309Z,101334.38
2023-01-09T13:56:11.824Z,101334.09
2023-01-09T13:58:42.666Z,101345.69
2023-01-09T14:01:42.070Z,101348.69
2023-01-09T14:04:15.788Z,101348.94
2023-01-09T14:07:21.854Z,101343.69
2023-01-09T14:10:03.776Z,101351.97
2023-01-09T14:12:42.910Z,101348.63
2023-01-09T14:15:46.931Z,101351.38
2023-01-09T14:18:29.339Z,101350.25
2023-01-09T14:21:03.028Z,101352.69
2023-01-09T14:23:51.612Z,101348.31
2023-01-09T14:26:27.194Z,101356.50
2023-01-09T14:29:35.761Z,101350.69
2023-01-09T14:32:31.458Z,101353.97
2023-01-09T14:35:11.122Z,101343.25
2023-01-09T14:37:41.881Z,101352.31
2023-01-09T14:40:38.385Z,101350.94
2023-01-09T14:43:17.528Z,101349.88
2023-01-09T14:46:18.510Z,101346.22
2023-01-09T14:49:07.207Z,101345.44
2023-01-09T14:51:44.087Z,101345.69
2023-01-09T14:54:38.559Z,101345.13
2023-01-09T14:57:36.368Z,101341.84
2023-01-09T15:00:18.933Z,101348.19
2023-01-09T15:02:50.788Z,101345.13
2023-01-09T15:05:24.313Z,101346.75
2023-01-09T15:08:01.499Z,101347.34
2023-01-09T15:10:39.288Z,101342.88
2023-01-09T15:13:16.263Z,101348.41
2023-01-09T15:15:51.265Z,101346.75
2023-01-09T15:18:28.501Z,101338.50
2023-01-09T15:21:03.367Z,101348.91
2023-01-09T15:23:34.504Z,101348.41
2023-01-09T15:26:16.525Z,101349.50
2023-01-09T15:28:46.739Z,101344.53
2023-01-09T15:31:23.077Z,101341.25
2023-01-09T15:33:54.448Z,101346.38
2023-01-09T15:36:28.730Z,101342.56
2023-01-09T15:38:59.453Z,101341.47
2023-01-09T15:41:51.144Z,101337.38
2023-01-09T15:44:28.792Z,101335.53
2023-01-09T15:47:06.529Z,101327.78
2023-01-09T15:49:40.555Z,101331.13
2023-01-09T15:52:17.586Z,101330.81
2023-01-09T15:54:49.362Z,101334.78
2023-01-09T15:57:28.606Z,101341.41
2023-01-09T16:00:20.067Z,101334.84
2023-01-09T16:03:08.559Z,101332.31
2023-01-09T16:05:53.760Z,101326.06
2023-01-09T16:08:36.779Z,101324.63
2023-01-09T16:11:10.877Z,101319.75
2023-01-09T16:13:48.187Z,101320.00
2023-01-09T16:16:34.993Z,101314.50
2023-01-09T16:19:05.276Z,101315.03
2023-01-09T16:21:36.984Z,101315.34
2023-01-09T16:24:19.653Z,101308.19
2023-01-09T16:26:50.012Z,101311.47
2023-01-09T16:29:30.417Z,101310.94
2023-01-09T16:32:06.882Z,101309.31
2023-01-09T16:34:38.636Z,101309.09
2023-01-09T16:37:08.993Z,101298.88
2023-01-09T16:39:41.039Z,101301.31
2023-01-09T16:42:30.662Z,101304.06
2023-01-09T16:45:00.873Z,101298.88
2023-01-09T16:47:31.261Z,101302.22
2023-01-09T16:50:01.191Z,101303.88
2023-01-09T16:52:32.369Z,101295.91
2023-01-09T16:55:02.562Z,101304.16
2023-01-09T16:57:33.080Z,101297.03
2023-01-09T17:00:04.235Z,101297.81
2023-01-09T17:02:34.500Z,101291.50
2023-01-09T17:05:05.440Z,101293.44
2023-01-09T17:07:36.786Z,101291.00
2023-01-09T17:10:07.411Z,101291.19
2023-01-09T17:12:37.627Z,101283.25
2023-01-09T17:15:08.247Z,101292.31
2023-01-09T17:17:38.429Z,101288.25
2023-01-09T17:20:22.018Z,101297.59
2023-01-09T17:22:52.236Z,101290.47
2023-01-09T17:25:40.287Z,101295.66
2023-01-09T17:28:36.229Z,101292.69
2023-01-09T17:31:13.363Z,101297.69
2023-01-09T17:33:44.606Z,101287.19
2023-01-09T17:36:36.824Z,101287.19
2023-01-09T17:39:07.341Z,101285.78
2023-01-09T17:41:37.472Z,101290.47
2023-01-09T17:44:07.941Z,101286.06
2023-01-09T17:46:40.977Z,101288.53
2023-01-09T17:49:19.776Z,101276.69
2023-01-09T17:51:50.255Z,101282.19
2023-01-09T17:54:21.343Z,101278.34
2023-01-09T17:57:11.887Z,101275.06
2023-01-09T17:59:42.065Z,101270.38
2023-01-09T18:02:21.884Z,101268.75
2023-01-09T18:04:52.178Z,101259.44
2023-01-09T18:07:22.975Z,101263.50
2023-01-09T18:09:53.118Z,101263.81
2023-01-09T18:12:23.103Z,101257.19
2023-01-09T18:14:53.946Z,101260.53
2023-01-09T18:17:24.303Z,101251.47
2023-01-09T18:19:54.598Z,101256.97
2023-01-09T18:22:24.583Z,101250.84
2023-01-09T18:24:54.838Z,101250.84
2023-01-09T18:27:24.941Z,101248.09
2023-01-09T18:29:55.029Z,101239.84
2023-01-09T18:32:26.446Z,101237.41
2023-01-09T18:34:56.686Z,101237.41
2023-01-09T18:37:26.997Z,101237.41
2023-01-09T18:39:57.575Z,101234.44
2023-01-09T18:42:28.029Z,101234.72
2023-01-09T18:44:58.250Z,101229.19
2023-01-09T18:47:28.451Z,101225.66
2023-01-09T18:49:58.649Z,101215.44
2023-01-09T18:52:28.850Z,101215.16
2023-01-09T18:54:58.969Z,101218.44
2023-01-09T18:57:29.116Z,101212.09
2023-01-09T18:59:59.206Z,101207.41
2023-01-09T19:02:29.661Z,101210.97
2023-01-09T19:04:59.853Z,101208.22
2023-01-09T19:07:29.984Z,101209.34
2023-01-09T19:10:00.074Z,101210.75
2023-01-09T19:12:30.217Z,101207.41
2023-01-09T19:15:00.316Z,101204.13
2023-01-09T19:17:30.443Z,101196.69
2023-01-09T19:20:00.459Z,101196.16
2023-01-09T19:22:30.874Z,101189.00
2023-01-09T19:25:01.037Z,101185.75
2023-01-09T19:27:32.828Z,101189.31
2023-01-09T19:30:03.068Z,101181.06
2023-01-09T19:32:33.232Z,101180.22
2023-01-09T19:35:03.390Z,101176.38
2023-01-09T19:37:33.657Z,101172.81
2023-01-09T19:40:03.799Z,101176.88
2023-01-09T19:42:34.147Z,101174.13
2023-01-09T19:45:04.475Z,101170.25
2023-01-09T19:47:38.326Z,101171.63
2023-01-09T19:50:10.651Z,101171.09
2023-01-09T19:52:40.780Z,101171.09
2023-01-09T19:55:13.503Z,101164.75
2023-01-09T19:57:46.183Z,101158.44
2023-01-09T20:00:17.724Z,101151.91
2023-01-09T20:02:47.564Z,101158.72
2023-01-09T20:05:17.806Z,101158.44
2023-01-09T20:07:47.819Z,101159.56
2023-01-09T20:10:18.864Z,101156.81
2023-01-09T20:12:49.007Z,101159.25
2023-01-09T20:15:19.066Z,101160.69
2023-01-09T20:17:49.052Z,101161.78
2023-01-09T20:22:46.454Z,101160.47
2023-01-09T20:25:16.678Z,101164.34
2023-01-09T20:27:46.686Z,101153.84
2023-01-09T20:30:17.069Z,101155.75
2023-01-09T20:32:49.680Z,101156.88
2023-01-09T20:35:19.926Z,101151.09
2023-01-09T20:37:50.175Z,101151.69
2023-01-09T20:40:20.048Z,101149.47
2023-01-09T20:42:49.916Z,101149.47
2023-01-09T20:45:19.947Z,101145.06
2023-01-09T20:47:51.454Z,101140.69
2023-01-09T20:50:23.617Z,101150.84
2023-01-09T20:52:54.115Z,101143.13
2023-01-09T20:55:24.177Z,101147.81
2023-01-09T20:57:54.262Z,101151.38
2023-01-09T21:00:29.495Z,101145.34
2023-01-09T21:03:00.784Z,101144.53
2023-01-09T21:05:30.566Z,101147.28
2023-01-09T21:08:02.494Z,101148.09
2023-01-09T21:10:32.518Z,101150.34
2023-01-09T21:13:02.884Z,101143.72
2023-01-09T21:15:33.121Z,101143.72
2023-01-09T21:18:03.037Z,101144.31
2023-01-09T21:20:32.893Z,101146.47
2023-01-09T21:23:02.782Z,101146.47
2023-01-09T21:25:32.716Z,101148.41
2023-01-09T21:28:02.661Z,101152.50
2023-01-09T21:30:32.504Z,101152.50
2023-01-09T21:33:05.847Z,101160.47
2023-01-09T21:35:37.431Z,101154.72
2023-01-09T21:38:07.472Z,101153.06
2023-01-09T21:40:37.490Z,101159.41
2023-01-09T21:43:42.672Z,101159.94
2023-01-09T21:46:35.108Z,101164.09
2023-01-09T21:49:09.126Z,101159.41
2023-01-09T21:51:41.201Z,101159.19
2023-01-09T21:54:11.853Z,101160.81
2023-01-09T21:56:41.926Z,101168.47
2023-01-09T21:59:12.427Z,101164.94
2023-01-09T22:01:42.736Z,101167.69
2023-01-09T22:04:16.817Z,101166.84
2023-01-09T22:06:47.336Z,101170.97
2023-01-09T22:09:18.168Z,101174.81
2023-01-09T22:11:49.760Z,101171.25
2023-01-09T22:14:21.098Z,101180.53
2023-01-09T22:16:51.264Z,101180.03
2023-01-09T22:19:21.274Z,101175.03
2023-01-09T22:21:51.542Z,101180.03
2023-01-09T22:24:23.843Z,101176.69
2023-01-09T22:26:53.998Z,101179.44
2023-01-09T22:29:24.525Z,101176.38
2023-01-09T22:31:54.677Z,101178.84
2023-01-09T22:34:24.916Z,101180.47
2023-01-09T22:36:55.259Z,101180.75
2023-01-09T22:39:25.843Z,101175.56
2023-01-09T22:41:57.351Z,101179.13
2023-01-09T22:44:28.548Z,101183.81
2023-01-09T22:47:59.166Z,101194.78
2023-01-09T22:50:30.558Z,101202.50
2023-01-09T22:53:00.770Z,101200.94
2023-01-09T22:55:30.920Z,101199.28
2023-01-09T22:58:00.896Z,101208.13
2023-01-09T23:00:31.773Z,101204.03
2023-01-09T23:03:01.868Z,101216.47
2023-01-09T23:05:31.940Z,101213.41
2023-01-09T23:08:02.655Z,101222.78
2023-01-09T23:10:32.743Z,101232.97
2023-01-09T23:13:02.640Z,101234.09
2023-01-09T23:15:33.884Z,101235.47
2023-01-09T23:18:03.568Z,101240.72
2023-01-09T23:20:33.473Z,101247.31
2023-01-09T23:23:04.314Z,101244.56
2023-01-09T23:25:35.448Z,101251.72
2023-01-09T23:28:05.590Z,101254.16
2023-01-09T23:30:35.759Z,101262.44
2023-01-09T23:33:05.919Z,101261.63
2023-01-09T23:35:37.190Z,101265.44
2023-01-09T23:38:07.203Z,101269.28
2023-01-09T23:40:41.830Z,101273.69
2023-01-09T23:43:17.260Z,101274.81
2023-01-09T23:45:48.683Z,101272.03
2023-01-09T23:48:20.520Z,101288.25
2023-01-09T23:50:56.041Z,101290.78
2023-01-09T23:53:26.479Z,101290.78
2023-01-09T23:55:57.476Z,101291.59
2023-01-09T23:58:28.790Z,101290.25
